sensor_id;sensor_type;location;lat;lon;timestamp;pressure;altitude;pressure_sealevel;temperature;humidity
73516;BME280;61763;51.416;5.442;2022-07-03T00:01:52;101611.88;;;14.52;83.99
73516;BME280;61763;51.416;5.442;2022-07-03T00:04:17;101612.31;;;14.45;83.61
73516;BME280;61763;51.416;5.442;2022-07-03T00:06:45;101609.28;;;14.33;83.81
73516;BME280;61763;51.416;5.442;2022-07-03T00:09:11;101608.97;;;14.22;83.83
73516;BME280;61763;51.416;5.442;2022-07-03T00:11:37;101604.88;;;14.15;83.96
73516;BME280;61763;51.416;5.442;2022-07-03T00:14:03;101612.63;;;14.05;84.18
73516;BME280;61763;51.416;5.442;2022-07-03T00:16:28;101617.38;;;14.00;84.52
73516;BME280;61763;51.416;5.442;2022-07-03T00:18:54;101617.72;;;13.94;84.65
73516;BME280;61763;51.416;5.442;2022-07-03T00:21:48;101613.72;;;13.83;84.99
73516;BME280;61763;51.416;5.442;2022-07-03T00:24:26;101619.56;;;13.76;85.09
73516;BME280;61763;51.416;5.442;2022-07-03T00:26:54;101614.38;;;13.71;85.81
73516;BME280;61763;51.416;5.442;2022-07-03T00:29:22;101613.88;;;13.63;85.79
73516;BME280;61763;51.416;5.442;2022-07-03T00:31:48;101623.69;;;13.65;86.09
73516;BME280;61763;51.416;5.442;2022-07-03T00:34:16;101638.34;;;13.61;86.11
73516;BME280;61763;51.416;5.442;2022-07-03T00:36:42;101652.75;;;13.63;86.69
73516;BME280;61763;51.416;5.442;2022-07-03T00:39:08;101655.06;;;13.71;85.71
73516;BME280;61763;51.416;5.442;2022-07-03T00:41:35;101639.25;;;13.79;84.26
73516;BME280;61763;51.416;5.442;2022-07-03T00:44:03;101650.28;;;13.94;82.72
73516;BME280;61763;51.416;5.442;2022-07-03T00:46:29;101648.47;;;13.94;82.60
73516;BME280;61763;51.416;5.442;2022-07-03T00:48:56;101648.38;;;13.96;81.88
73516;BME280;61763;51.416;5.442;2022-07-03T00:51:26;101652.13;;;13.93;81.68
73516;BME280;61763;51.416;5.442;2022-07-03T00:53:57;101647.13;;;14.03;80.73
73516;BME280;61763;51.416;5.442;2022-07-03T00:56:25;101655.97;;;14.07;80.69
73516;BME280;61763;51.416;5.442;2022-07-03T00:58:56;101651.63;;;14.02;80.94
73516;BME280;61763;51.416;5.442;2022-07-03T01:01:26;101646.63;;;13.95;81.33
73516;BME280;61763;51.416;5.442;2022-07-03T01:04:08;101655.09;;;13.89;81.38
73516;BME280;61763;51.416;5.442;2022-07-03T01:07:00;101642.78;;;13.81;81.72
73516;BME280;61763;51.416;5.442;2022-07-03T01:12:38;101649.94;;;13.65;82.55
73516;BME280;61763;51.416;5.442;2022-07-03T01:15:15;101646.88;;;13.54;82.59
73516;BME280;61763;51.416;5.442;2022-07-03T01:17:50;101649.69;;;13.52;82.98
73516;BME280;61763;51.416;5.442;2022-07-03T01:20:27;101637.38;;;13.45;83.27
73516;BME280;61763;51.416;5.442;2022-07-03T01:22:55;101645.75;;;13.40;83.71
73516;BME280;61763;51.416;5.442;2022-07-03T01:30:31;101648.38;;;13.23;84.25
73516;BME280;61763;51.416;5.442;2022-07-03T01:33:33;101651.31;;;13.18;84.46
73516;BME280;61763;51.416;5.442;2022-07-03T01:38:30;101648.69;;;13.17;84.51
73516;BME280;61763;51.416;5.442;2022-07-03T01:40:56;101642.66;;;13.10;84.41
73516;BME280;61763;51.416;5.442;2022-07-03T01:43:33;101653.00;;;13.02;84.52
73516;BME280;61763;51.416;5.442;2022-07-03T01:46:00;101643.41;;;12.94;84.70
73516;BME280;61763;51.416;5.442;2022-07-03T01:48:26;101633.97;;;12.84;85.02
73516;BME280;61763;51.416;5.442;2022-07-03T01:50:52;101641.25;;;12.82;85.25
73516;BME280;61763;51.416;5.442;2022-07-03T01:53:19;101646.09;;;12.75;85.53
73516;BME280;61763;51.416;5.442;2022-07-03T01:55:46;101646.41;;;12.69;85.59
73516;BME280;61763;51.416;5.442;2022-07-03T01:58:13;101647.41;;;12.67;85.80
73516;BME280;61763;51.416;5.442;2022-07-03T02:01:02;101646.59;;;12.65;86.22
73516;BME280;61763;51.416;5.442;2022-07-03T02:03:33;101651.28;;;12.61;86.31
73516;BME280;61763;51.416;5.442;2022-07-03T02:06:11;101637.09;;;12.56;86.51
73516;BME280;61763;51.416;5.442;2022-07-03T02:08:43;101633.63;;;12.52;86.85
73516;BME280;61763;51.416;5.442;2022-07-03T02:16:29;101631.50;;;12.40;86.69
73516;BME280;61763;51.416;5.442;2022-07-03T02:19:04;101632.56;;;12.36;86.98
73516;BME280;61763;51.416;5.442;2022-07-03T02:21:31;101629.00;;;12.35;87.27
73516;BME280;61763;51.416;5.442;2022-07-03T02:24:26;101631.81;;;12.32;87.40
73516;BME280;61763;51.416;5.442;2022-07-03T02:27:03;101623.91;;;12.27;87.39
73516;BME280;61763;51.416;5.442;2022-07-03T02:29:34;101625.03;;;12.23;87.32
73516;BME280;61763;51.416;5.442;2022-07-03T02:32:07;101634.22;;;12.19;87.56
73516;BME280;61763;51.416;5.442;2022-07-03T02:34:38;101633.53;;;12.14;87.42
73516;BME280;61763;51.416;5.442;2022-07-03T02:37:12;101633.72;;;12.09;87.63
73516;BME280;61763;51.416;5.442;2022-07-03T02:40:00;101646.53;;;12.06;87.73
73516;BME280;61763;51.416;5.442;2022-07-03T02:42:35;101637.66;;;12.02;87.86
73516;BME280;61763;51.416;5.442;2022-07-03T02:45:03;101638.66;;;12.00;88.35
73516;BME280;61763;51.416;5.442;2022-07-03T02:47:37;101634.28;;;11.97;88.47
73516;BME280;61763;51.416;5.442;2022-07-03T02:50:08;101639.84;;;11.94;88.38
73516;BME280;61763;51.416;5.442;2022-07-03T02:55:38;101632.75;;;11.90;88.96
73516;BME280;61763;51.416;5.442;2022-07-03T02:58:29;101623.81;;;11.88;88.75
73516;BME280;61763;51.416;5.442;2022-07-03T03:01:07;101636.59;;;11.84;88.71
73516;BME280;61763;51.416;5.442;2022-07-03T03:03:34;101626.84;;;11.80;88.65
73516;BME280;61763;51.416;5.442;2022-07-03T03:06:13;101628.69;;;11.80;88.91
73516;BME280;61763;51.416;5.442;2022-07-03T03:08:53;101629.63;;;11.79;89.26
73516;BME280;61763;51.416;5.442;2022-07-03T03:13:55;101630.69;;;11.74;89.28
73516;BME280;61763;51.416;5.442;2022-07-03T03:16:22;101637.13;;;11.72;89.39
73516;BME280;61763;51.416;5.442;2022-07-03T03:18:48;101640.78;;;11.71;89.40
73516;BME280;61763;51.416;5.442;2022-07-03T03:21:16;101651.72;;;11.68;89.28
73516;BME280;61763;51.416;5.442;2022-07-03T03:23:50;101649.09;;;11.66;89.40
73516;BME280;61763;51.416;5.442;2022-07-03T03:26:21;101641.84;;;11.67;89.57
73516;BME280;61763;51.416;5.442;2022-07-03T03:28:49;101634.06;;;11.59;89.52
73516;BME280;61763;51.416;5.442;2022-07-03T03:31:14;101647.31;;;11.65;89.44
73516;BME280;61763;51.416;5.442;2022-07-03T03:33:44;101651.72;;;11.68;89.59
73516;BME280;61763;51.416;5.442;2022-07-03T03:36:11;101659.78;;;11.69;89.64
73516;BME280;61763;51.416;5.442;2022-07-03T03:38:37;101654.16;;;11.74;89.57
73516;BME280;61763;51.416;5.442;2022-07-03T03:41:03;101648.75;;;11.74;89.51
73516;BME280;61763;51.416;5.442;2022-07-03T03:43:30;101657.59;;;11.78;89.47
73516;BME280;61763;51.416;5.442;2022-07-03T03:45:56;101660.13;;;11.82;89.49
73516;BME280;61763;51.416;5.442;2022-07-03T03:48:21;101655.47;;;11.86;89.40
73516;BME280;61763;51.416;5.442;2022-07-03T03:50:47;101649.00;;;11.90;89.34
73516;BME280;61763;51.416;5.442;2022-07-03T03:53:14;101652.38;;;11.95;89.10
73516;BME280;61763;51.416;5.442;2022-07-03T03:56:00;101654.81;;;12.01;88.44
73516;BME280;61763;51.416;5.442;2022-07-03T03:58:27;101663.56;;;12.08;87.98
73516;BME280;61763;51.416;5.442;2022-07-03T04:00:58;101657.88;;;12.14;87.60
73516;BME280;61763;51.416;5.442;2022-07-03T04:03:28;101651.25;;;12.21;87.35
73516;BME280;61763;51.416;5.442;2022-07-03T04:05:54;101650.97;;;12.27;86.84
73516;BME280;61763;51.416;5.442;2022-07-03T04:08:21;101643.53;;;12.33;86.50
73516;BME280;61763;51.416;5.442;2022-07-03T04:10:47;101654.16;;;12.37;86.09
73516;BME280;61763;51.416;5.442;2022-07-03T04:13:13;101657.41;;;12.46;86.09
73516;BME280;61763;51.416;5.442;2022-07-03T04:15:39;101656.22;;;12.51;85.69
73516;BME280;61763;51.416;5.442;2022-07-03T04:18:04;101655.16;;;12.55;85.56
73516;BME280;61763;51.416;5.442;2022-07-03T04:20:29;101656.63;;;12.62;85.30
73516;BME280;61763;51.416;5.442;2022-07-03T04:22:56;101656.88;;;12.77;84.55
73516;BME280;61763;51.416;5.442;2022-07-03T04:25:21;101659.59;;;12.96;83.58
73516;BME280;61763;51.416;5.442;2022-07-03T04:27:47;101659.66;;;12.94;83.79
73516;BME280;61763;51.416;5.442;2022-07-03T04:30:12;101660.53;;;12.95;83.78
73516;BME280;61763;51.416;5.442;2022-07-03T04:32:38;101657.75;;;13.15;82.45
73516;BME280;61763;51.416;5.442;2022-07-03T04:35:04;101663.47;;;13.28;81.74
73516;BME280;61763;51.416;5.442;2022-07-03T04:37:30;101664.41;;;13.46;81.04
73516;BME280;61763;51.416;5.442;2022-07-03T04:39:55;101659.28;;;13.59;80.73
73516;BME280;61763;51.416;5.442;2022-07-03T04:42:21;101670.53;;;13.87;81.02
73516;BME280;61763;51.416;5.442;2022-07-03T04:44:46;101667.22;;;14.16;79.67
73516;BME280;61763;51.416;5.442;2022-07-03T04:47:12;101677.75;;;14.40;77.64
73516;BME280;61763;51.416;5.442;2022-07-03T04:49:39;101670.31;;;14.61;75.27
73516;BME280;61763;51.416;5.442;2022-07-03T04:52:05;101674.69;;;14.64;75.42
73516;BME280;61763;51.416;5.442;2022-07-03T04:54:30;101671.47;;;14.73;74.62
73516;BME280;61763;51.416;5.442;2022-07-03T04:56:56;101671.06;;;14.97;72.21
73516;BME280;61763;51.416;5.442;2022-07-03T04:59:21;101672.78;;;15.15;71.13
73516;BME280;61763;51.416;5.442;2022-07-03T05:01:46;101668.28;;;15.30;71.27
73516;BME280;61763;51.416;5.442;2022-07-03T05:04:14;101677.41;;;15.45;70.58
73516;BME280;61763;51.416;5.442;2022-07-03T05:06:40;101671.88;;;15.63;70.17
73516;BME280;61763;51.416;5.442;2022-07-03T05:09:05;101671.78;;;15.64;69.48
73516;BME280;61763;51.416;5.442;2022-07-03T05:11:30;101665.47;;;15.64;69.97
73516;BME280;61763;51.416;5.442;2022-07-03T05:13:56;101668.16;;;15.80;69.25
73516;BME280;61763;51.416;5.442;2022-07-03T05:16:21;101673.97;;;15.89;68.13
73516;BME280;61763;51.416;5.442;2022-07-03T05:18:47;101670.78;;;15.97;68.53
73516;BME280;61763;51.416;5.442;2022-07-03T05:21:12;101671.78;;;16.10;67.79
73516;BME280;61763;51.416;5.442;2022-07-03T05:23:38;101672.88;;;16.08;68.18
73516;BME280;61763;51.416;5.442;2022-07-03T05:26:03;101660.63;;;16.15;67.25
73516;BME280;61763;51.416;5.442;2022-07-03T05:28:28;101675.31;;;16.13;68.27
73516;BME280;61763;51.416;5.442;2022-07-03T05:30:54;101672.69;;;16.11;68.39
73516;BME280;61763;51.416;5.442;2022-07-03T05:33:19;101671.78;;;16.10;68.48
73516;BME280;61763;51.416;5.442;2022-07-03T05:35:45;101675.41;;;16.11;67.12
73516;BME280;61763;51.416;5.442;2022-07-03T05:38:10;101674.53;;;16.25;66.59
73516;BME280;61763;51.416;5.442;2022-07-03T05:40:36;101680.69;;;16.28;67.63
73516;BME280;61763;51.416;5.442;2022-07-03T05:43:01;101683.53;;;16.56;67.09
73516;BME280;61763;51.416;5.442;2022-07-03T05:45:26;101676.66;;;16.79;65.67
73516;BME280;61763;51.416;5.442;2022-07-03T05:47:52;101680.75;;;16.86;65.17
73516;BME280;61763;51.416;5.442;2022-07-03T05:50:18;101685.06;;;16.90;65.49
73516;BME280;61763;51.416;5.442;2022-07-03T05:52:44;101685.25;;;17.02;64.27
73516;BME280;61763;51.416;5.442;2022-07-03T05:55:09;101690.22;;;17.09;65.22
73516;BME280;61763;51.416;5.442;2022-07-03T05:57:34;101688.06;;;17.00;64.54
73516;BME280;61763;51.416;5.442;2022-07-03T06:00:00;101683.78;;;17.10;64.52
73516;BME280;61763;51.416;5.442;2022-07-03T06:02:26;101690.50;;;17.05;64.44
73516;BME280;61763;51.416;5.442;2022-07-03T06:04:51;101701.09;;;17.24;63.84
73516;BME280;61763;51.416;5.442;2022-07-03T06:07:17;101693.97;;;17.36;62.33
73516;BME280;61763;51.416;5.442;2022-07-03T06:09:43;101683.81;;;17.52;63.17
73516;BME280;61763;51.416;5.442;2022-07-03T06:12:09;101689.63;;;17.60;62.87
73516;BME280;61763;51.416;5.442;2022-07-03T06:14:35;101693.69;;;17.67;62.78
73516;BME280;61763;51.416;5.442;2022-07-03T06:17:00;101690.22;;;17.78;61.66
73516;BME280;61763;51.416;5.442;2022-07-03T06:19:26;101700.19;;;17.79;62.14
73516;BME280;61763;51.416;5.442;2022-07-03T06:21:51;101696.44;;;17.95;61.66
73516;BME280;61763;51.416;5.442;2022-07-03T06:24:16;101696.13;;;17.99;62.62
73516;BME280;61763;51.416;5.442;2022-07-03T06:26:42;101693.91;;;17.92;62.20
73516;BME280;61763;51.416;5.442;2022-07-03T06:29:07;101694.31;;;18.13;61.87
73516;BME280;61763;51.416;5.442;2022-07-03T06:31:32;101702.44;;;18.27;62.61
73516;BME280;61763;51.416;5.442;2022-07-03T06:33:58;101707.13;;;18.38;60.98
73516;BME280;61763;51.416;5.442;2022-07-03T06:36:23;101700.25;;;18.45;61.47
73516;BME280;61763;51.416;5.442;2022-07-03T06:38:49;101701.69;;;18.64;60.27
73516;BME280;61763;51.416;5.442;2022-07-03T06:41:14;101700.94;;;18.74;61.00
73516;BME280;61763;51.416;5.442;2022-07-03T06:43:39;101699.50;;;18.69;60.60
73516;BME280;61763;51.416;5.442;2022-07-03T06:46:05;101699.41;;;18.45;61.92
73516;BME280;61763;51.416;5.442;2022-07-03T06:48:30;101713.38;;;18.53;61.63
73516;BME280;61763;51.416;5.442;2022-07-03T06:50:55;101704.31;;;18.52;60.93
73516;BME280;61763;51.416;5.442;2022-07-03T06:53:21;101705.94;;;18.55;61.38
73516;BME280;61763;51.416;5.442;2022-07-03T06:55:46;101703.22;;;18.68;60.73
73516;BME280;61763;51.416;5.442;2022-07-03T06:58:11;101705.09;;;18.80;61.31
73516;BME280;61763;51.416;5.442;2022-07-03T07:00:37;101700.41;;;18.95;60.95
73516;BME280;61763;51.416;5.442;2022-07-03T07:03:04;101702.38;;;18.93;60.00
73516;BME280;61763;51.416;5.442;2022-07-03T07:05:29;101699.72;;;19.04;59.93
73516;BME280;61763;51.416;5.442;2022-07-03T07:07:54;101696.59;;;18.98;61.29
73516;BME280;61763;51.416;5.442;2022-07-03T07:10:20;101698.88;;;19.04;59.68
73516;BME280;61763;51.416;5.442;2022-07-03T07:12:45;101699.63;;;19.06;61.12
73516;BME280;61763;51.416;5.442;2022-07-03T07:15:11;101696.16;;;18.91;61.46
73516;BME280;61763;51.416;5.442;2022-07-03T07:17:36;101703.00;;;18.71;60.98
73516;BME280;61763;51.416;5.442;2022-07-03T07:20:02;101700.19;;;18.98;60.24
73516;BME280;61763;51.416;5.442;2022-07-03T07:22:27;101705.22;;;18.79;61.16
73516;BME280;61763;51.416;5.442;2022-07-03T07:24:53;101703.78;;;18.99;60.21
73516;BME280;61763;51.416;5.442;2022-07-03T07:27:18;101706.19;;;19.03;60.06
73516;BME280;61763;51.416;5.442;2022-07-03T07:29:43;101711.06;;;19.24;60.17
73516;BME280;61763;51.416;5.442;2022-07-03T07:32:09;101705.22;;;19.41;58.90
73516;BME280;61763;51.416;5.442;2022-07-03T07:34:34;101712.59;;;19.28;60.16
73516;BME280;61763;51.416;5.442;2022-07-03T07:36:59;101718.06;;;19.28;59.81
73516;BME280;61763;51.416;5.442;2022-07-03T07:39:25;101714.59;;;19.63;58.32
73516;BME280;61763;51.416;5.442;2022-07-03T07:41:50;101725.94;;;19.70;58.50
73516;BME280;61763;51.416;5.442;2022-07-03T07:44:16;101718.00;;;19.91;57.18
73516;BME280;61763;51.416;5.442;2022-07-03T07:46:41;101708.75;;;19.81;57.29
73516;BME280;61763;51.416;5.442;2022-07-03T07:49:06;101712.72;;;19.64;58.07
73516;BME280;61763;51.416;5.442;2022-07-03T07:51:32;101713.00;;;19.85;58.87
73516;BME280;61763;51.416;5.442;2022-07-03T07:53:57;101710.59;;;20.04;56.56
73516;BME280;61763;51.416;5.442;2022-07-03T07:56:25;101703.59;;;20.00;57.32
73516;BME280;61763;51.416;5.442;2022-07-03T07:58:50;101709.91;;;19.89;57.25
73516;BME280;61763;51.416;5.442;2022-07-03T08:01:17;101716.13;;;20.16;56.73
73516;BME280;61763;51.416;5.442;2022-07-03T08:04:02;101718.25;;;20.59;55.92
73516;BME280;61763;51.416;5.442;2022-07-03T08:06:46;101715.59;;;20.93;55.36
73516;BME280;61763;51.416;5.442;2022-07-03T08:09:11;101713.44;;;20.96;54.65
73516;BME280;61763;51.416;5.442;2022-07-03T08:11:36;101716.84;;;21.11;54.33
73516;BME280;61763;51.416;5.442;2022-07-03T08:14:02;101710.59;;;21.21;53.04
73516;BME280;61763;51.416;5.442;2022-07-03T08:16:30;101716.56;;;21.26;53.39
73516;BME280;61763;51.416;5.442;2022-07-03T08:18:55;101720.44;;;21.34;54.05
73516;BME280;61763;51.416;5.442;2022-07-03T08:21:21;101713.66;;;21.73;51.92
73516;BME280;61763;51.416;5.442;2022-07-03T08:23:46;101711.69;;;21.52;52.65
73516;BME280;61763;51.416;5.442;2022-07-03T08:26:11;101717.06;;;21.53;53.30
73516;BME280;61763;51.416;5.442;2022-07-03T08:28:37;101715.13;;;21.88;51.76
73516;BME280;61763;51.416;5.442;2022-07-03T08:31:02;101716.22;;;21.97;52.20
73516;BME280;61763;51.416;5.442;2022-07-03T08:33:28;101718.63;;;21.79;52.02
73516;BME280;61763;51.416;5.442;2022-07-03T08:35:53;101715.53;;;21.83;52.25
73516;BME280;61763;51.416;5.442;2022-07-03T08:38:25;101714.69;;;21.72;52.82
73516;BME280;61763;51.416;5.442;2022-07-03T08:40:51;101711.94;;;21.60;52.80
73516;BME280;61763;51.416;5.442;2022-07-03T08:43:17;101712.81;;;21.38;53.25
73516;BME280;61763;51.416;5.442;2022-07-03T08:45:43;101716.78;;;21.68;51.80
73516;BME280;61763;51.416;5.442;2022-07-03T08:48:08;101716.03;;;22.10;50.41
73516;BME280;61763;51.416;5.442;2022-07-03T08:50:35;101710.06;;;22.26;51.04
73516;BME280;61763;51.416;5.442;2022-07-03T08:53:01;101706.44;;;22.36;50.16
73516;BME280;61763;51.416;5.442;2022-07-03T08:55:28;101711.81;;;22.59;49.05
73516;BME280;61763;51.416;5.442;2022-07-03T08:57:54;101708.22;;;22.68;49.07
73516;BME280;61763;51.416;5.442;2022-07-03T09:00:21;101700.94;;;22.36;50.15
73516;BME280;61763;51.416;5.442;2022-07-03T09:02:48;101705.59;;;22.25;51.56
73516;BME280;61763;51.416;5.442;2022-07-03T09:05:15;101707.38;;;22.68;48.29
73516;BME280;61763;51.416;5.442;2022-07-03T09:07:44;101693.44;;;23.21;47.80
73516;BME280;61763;51.416;5.442;2022-07-03T09:10:11;101704.41;;;23.42;48.23
73516;BME280;61763;51.416;5.442;2022-07-03T09:12:37;101706.84;;;23.36;46.51
73516;BME280;61763;51.416;5.442;2022-07-03T09:15:05;101708.34;;;23.19;45.95
73516;BME280;61763;51.416;5.442;2022-07-03T09:17:31;101706.34;;;22.90;47.37
73516;BME280;61763;51.416;5.442;2022-07-03T09:20:02;101709.50;;;22.85;46.48
73516;BME280;61763;51.416;5.442;2022-07-03T09:22:35;101705.34;;;23.01;47.85
73516;BME280;61763;51.416;5.442;2022-07-03T09:25:11;101711.84;;;23.71;45.05
73516;BME280;61763;51.416;5.442;2022-07-03T09:27:49;101704.50;;;24.01;45.85
73516;BME280;61763;51.416;5.442;2022-07-03T09:30:16;101714.53;;;23.42;45.19
73516;BME280;61763;51.416;5.442;2022-07-03T09:38:00;101709.91;;;25.36;43.54
73516;BME280;61763;51.416;5.442;2022-07-03T09:43:10;101722.78;;;24.22;45.52
73516;BME280;61763;51.416;5.442;2022-07-03T09:53:56;101724.22;;;24.45;45.38
73516;BME280;61763;51.416;5.442;2022-07-03T09:56:33;101715.50;;;24.70;46.39
73516;BME280;61763;51.416;5.442;2022-07-03T09:59:13;101718.59;;;24.08;47.66
73516;BME280;61763;51.416;5.442;2022-07-03T10:01:43;101723.78;;;24.70;45.67
73516;BME280;61763;51.416;5.442;2022-07-03T10:04:13;101717.41;;;24.49;46.29
73516;BME280;61763;51.416;5.442;2022-07-03T10:07:05;101717.53;;;24.48;46.25
73516;BME280;61763;51.416;5.442;2022-07-03T10:09:32;101723.41;;;25.02;47.60
73516;BME280;61763;51.416;5.442;2022-07-03T10:12:00;101726.25;;;24.53;43.75
73516;BME280;61763;51.416;5.442;2022-07-03T10:14:27;101720.25;;;25.25;45.04
73516;BME280;61763;51.416;5.442;2022-07-03T10:16:53;101716.78;;;25.78;41.89
73516;BME280;61763;51.416;5.442;2022-07-03T10:19:22;101732.63;;;26.40;42.99
73516;BME280;61763;51.416;5.442;2022-07-03T10:21:54;101732.22;;;26.35;41.60
73516;BME280;61763;51.416;5.442;2022-07-03T10:24:24;101729.44;;;25.99;41.60
73516;BME280;61763;51.416;5.442;2022-07-03T10:26:51;101723.47;;;26.03;41.28
73516;BME280;61763;51.416;5.442;2022-07-03T10:29:20;101724.00;;;25.61;41.59
73516;BME280;61763;51.416;5.442;2022-07-03T10:31:46;101720.75;;;25.94;42.13
73516;BME280;61763;51.416;5.442;2022-07-03T10:34:20;101723.16;;;25.33;41.21
73516;BME280;61763;51.416;5.442;2022-07-03T10:36:48;101729.72;;;24.75;43.64
73516;BME280;61763;51.416;5.442;2022-07-03T10:39:23;101729.59;;;25.97;42.50
73516;BME280;61763;51.416;5.442;2022-07-03T10:41:55;101735.94;;;26.44;40.93
73516;BME280;61763;51.416;5.442;2022-07-03T10:45:10;101724.97;;;25.70;41.21
73516;BME280;61763;51.416;5.442;2022-07-03T10:47:38;101723.72;;;25.82;41.63
73516;BME280;61763;51.416;5.442;2022-07-03T10:50:30;101733.09;;;26.17;40.02
73516;BME280;61763;51.416;5.442;2022-07-03T10:56:03;101735.13;;;25.14;42.85
73516;BME280;61763;51.416;5.442;2022-07-03T10:58:28;101742.44;;;24.95;43.24
73516;BME280;61763;51.416;5.442;2022-07-03T11:00:54;101743.25;;;24.39;45.26
73516;BME280;61763;51.416;5.442;2022-07-03T11:03:54;101739.94;;;24.25;45.77
73516;BME280;61763;51.416;5.442;2022-07-03T11:09:15;101745.34;;;23.67;45.51
73516;BME280;61763;51.416;5.442;2022-07-03T11:11:45;101748.44;;;23.33;46.84
73516;BME280;61763;51.416;5.442;2022-07-03T11:14:21;101740.88;;;23.25;46.69
73516;BME280;61763;51.416;5.442;2022-07-03T11:16:46;101733.75;;;23.73;47.69
73516;BME280;61763;51.416;5.442;2022-07-03T11:19:12;101726.28;;;24.43;44.27
73516;BME280;61763;51.416;5.442;2022-07-03T11:21:42;101728.66;;;24.95;45.93
73516;BME280;61763;51.416;5.442;2022-07-03T11:24:34;101725.00;;;24.28;43.52
73516;BME280;61763;51.416;5.442;2022-07-03T11:27:22;101724.25;;;24.26;43.63
73516;BME280;61763;51.416;5.442;2022-07-03T11:29:50;101717.28;;;24.22;44.20
73516;BME280;61763;51.416;5.442;2022-07-03T11:32:46;101713.19;;;24.55;43.18
73516;BME280;61763;51.416;5.442;2022-07-03T11:35:50;101710.00;;;24.50;43.01
73516;BME280;61763;51.416;5.442;2022-07-03T11:38:24;101718.44;;;23.39;44.22
73516;BME280;61763;51.416;5.442;2022-07-03T11:40:51;101715.69;;;23.90;44.61
73516;BME280;61763;51.416;5.442;2022-07-03T11:43:17;101719.75;;;24.35;45.94
73516;BME280;61763;51.416;5.442;2022-07-03T11:45:45;101714.06;;;24.36;42.55
73516;BME280;61763;51.416;5.442;2022-07-03T11:48:24;101711.81;;;24.98;40.72
73516;BME280;61763;51.416;5.442;2022-07-03T11:50:51;101712.13;;;25.23;40.16
73516;BME280;61763;51.416;5.442;2022-07-03T11:55:59;101706.16;;;26.01;37.72
73516;BME280;61763;51.416;5.442;2022-07-03T11:58:27;101702.75;;;25.44;37.99
73516;BME280;61763;51.416;5.442;2022-07-03T12:01:04;101702.19;;;24.36;40.34
73516;BME280;61763;51.416;5.442;2022-07-03T12:03:29;101699.53;;;24.54;39.58
73516;BME280;61763;51.416;5.442;2022-07-03T12:05:57;101698.38;;;24.56;41.29
73516;BME280;61763;51.416;5.442;2022-07-03T12:08:28;101706.03;;;24.82;40.66
73516;BME280;61763;51.416;5.442;2022-07-03T12:11:09;101703.19;;;25.67;38.35
73516;BME280;61763;51.416;5.442;2022-07-03T12:13:35;101706.38;;;25.44;39.71
73516;BME280;61763;51.416;5.442;2022-07-03T12:16:12;101706.06;;;25.10;40.63
73516;BME280;61763;51.416;5.442;2022-07-03T12:21:10;101705.13;;;25.57;39.95
73516;BME280;61763;51.416;5.442;2022-07-03T12:23:46;101698.03;;;25.54;39.12
73516;BME280;61763;51.416;5.442;2022-07-03T12:26:13;101704.63;;;25.06;39.76
73516;BME280;61763;51.416;5.442;2022-07-03T12:28:38;101702.44;;;25.09;40.28
73516;BME280;61763;51.416;5.442;2022-07-03T12:31:05;101707.75;;;24.93;40.77
73516;BME280;61763;51.416;5.442;2022-07-03T12:33:31;101702.22;;;25.30;40.07
73516;BME280;61763;51.416;5.442;2022-07-03T12:36:08;101713.38;;;25.66;40.18
73516;BME280;61763;51.416;5.442;2022-07-03T12:38:36;101705.88;;;25.31;39.40
73516;BME280;61763;51.416;5.442;2022-07-03T12:41:08;101719.47;;;25.05;39.00
73516;BME280;61763;51.416;5.442;2022-07-03T12:43:42;101716.22;;;24.81;40.11
73516;BME280;61763;51.416;5.442;2022-07-03T12:48:50;101715.69;;;24.09;41.67
73516;BME280;61763;51.416;5.442;2022-07-03T12:51:36;101717.13;;;24.04;41.43
73516;BME280;61763;51.416;5.442;2022-07-03T12:54:03;101709.28;;;24.19;40.71
73516;BME280;61763;51.416;5.442;2022-07-03T12:56:28;101710.13;;;25.15;39.60
73516;BME280;61763;51.416;5.442;2022-07-03T12:58:54;101708.91;;;25.56;39.40
73516;BME280;61763;51.416;5.442;2022-07-03T13:01:37;101717.28;;;25.08;37.95
73516;BME280;61763;51.416;5.442;2022-07-03T13:04:03;101703.31;;;24.72;39.28
73516;BME280;61763;51.416;5.442;2022-07-03T13:06:30;101701.84;;;25.15;38.14
73516;BME280;61763;51.416;5.442;2022-07-03T13:08:59;101710.88;;;25.45;38.58
73516;BME280;61763;51.416;5.442;2022-07-03T13:11:30;101715.81;;;25.14;37.46
73516;BME280;61763;51.416;5.442;2022-07-03T13:14:13;101709.44;;;23.98;39.22
73516;BME280;61763;51.416;5.442;2022-07-03T13:16:43;101709.31;;;24.28;38.81
73516;BME280;61763;51.416;5.442;2022-07-03T13:19:11;101701.13;;;25.13;37.42
73516;BME280;61763;51.416;5.442;2022-07-03T13:21:37;101706.53;;;23.89;39.17
73516;BME280;61763;51.416;5.442;2022-07-03T13:24:04;101712.47;;;24.34;39.99
73516;BME280;61763;51.416;5.442;2022-07-03T13:26:29;101716.69;;;24.38;38.69
73516;BME280;61763;51.416;5.442;2022-07-03T13:28:55;101702.47;;;24.23;37.58
73516;BME280;61763;51.416;5.442;2022-07-03T13:31:20;101704.78;;;25.04;37.99
73516;BME280;61763;51.416;5.442;2022-07-03T13:33:46;101705.59;;;25.52;36.74
73516;BME280;61763;51.416;5.442;2022-07-03T13:36:11;101712.16;;;24.76;36.94
73516;BME280;61763;51.416;5.442;2022-07-03T13:38:37;101714.44;;;24.90;37.61
73516;BME280;61763;51.416;5.442;2022-07-03T13:41:02;101711.50;;;25.39;37.95
73516;BME280;61763;51.416;5.442;2022-07-03T13:43:27;101713.19;;;25.96;38.91
73516;BME280;61763;51.416;5.442;2022-07-03T13:45:53;101703.81;;;25.33;37.58
73516;BME280;61763;51.416;5.442;2022-07-03T13:48:19;101696.50;;;24.66;37.16
73516;BME280;61763;51.416;5.442;2022-07-03T13:50:45;101696.25;;;24.97;39.03
73516;BME280;61763;51.416;5.442;2022-07-03T13:53:12;101700.09;;;25.14;38.68